Time;durP1;ratioP1;P1;durP2;ratioP2;P2;SDS_P1;SDS_P2;PMS_P1;PMS_P2;Temp;Humidity;BMP_temperature;BMP_pressure;BME280_temperature;BME280_humidity;BME280_pressure;Samples;Min_cycle;Max_cycle;Signal;HPM_P1;HPM_P2
2024/02/25 00:00:26;;;;;;;7.63;4.75;;;;;;;10.98;47.69;93793.06;5052234;28;20618;-73
2024/02/25 00:02:51;;;;;;;8.23;4.90;;;;;;;10.65;48.61;93789.34;5052060;28;20020;-72
2024/02/25 00:05:17;;;;;;;7.65;3.50;;;;;;;10.96;46.98;93779.28;5034634;28;20017;-73
2024/02/25 00:07:42;;;;;;;6.28;3.28;;;;;;;11.54;46.90;93797.31;5051601;28;20059;-73
2024/02/25 00:10:08;;;;;;;3.63;2.97;;;;;;;11.95;45.82;93771.91;5051845;28;20498;-73
2024/02/25 00:12:33;;;;;;;7.40;3.50;;;;;;;12.30;44.89;93777.81;5051596;28;20060;-73
2024/02/25 00:14:59;;;;;;;4.13;3.00;;;;;;;12.53;43.54;93784.41;5051599;28;20525;-73
2024/02/25 00:17:24;;;;;;;6.53;2.90;;;;;;;12.67;43.18;93792.94;5034421;28;20025;-73
2024/02/25 00:19:49;;;;;;;3.88;2.97;;;;;;;12.98;42.81;93781.84;5051630;28;20078;-73
2024/02/25 00:22:15;;;;;;;3.72;2.75;;;;;;;12.63;43.06;93765.34;5051466;28;20572;-73
2024/02/25 00:24:40;;;;;;;5.68;2.55;;;;;;;12.25;42.98;93781.47;5051438;28;20129;-73
2024/02/25 00:27:06;;;;;;;5.43;2.58;;;;;;;12.13;44.01;93797.34;5051726;28;20394;-72
2024/02/25 00:29:32;;;;;;;3.80;2.88;;;;;;;11.48;45.05;93784.47;5051906;28;20078;-73
2024/02/25 00:31:57;;;;;;;5.75;2.78;;;;;;;11.62;45.20;93782.41;5051264;28;20510;-73
2024/02/25 00:34:23;;;;;;;4.07;2.97;;;;;;;11.58;44.97;93770.84;5051657;28;20037;-73
2024/02/25 00:36:48;;;;;;;5.20;3.10;;;;;;;12.16;44.35;93790.63;5051488;28;20511;-73
2024/02/25 00:39:16;;;;;;;7.70;3.05;;;;;;;11.98;44.13;93801.34;5051408;28;20037;-73
2024/02/25 00:41:47;;;;;;;4.60;2.50;;;;;;;12.07;44.81;93809.34;5052141;28;20115;-73
2024/02/25 00:44:12;;;;;;;3.78;2.50;;;;;;;12.40;43.81;93812.09;5051205;28;20555;-73
2024/02/25 00:46:38;;;;;;;5.85;2.65;;;;;;;12.54;43.33;93817.97;5050849;28;20033;-73
2024/02/25 00:49:03;;;;;;;7.03;3.20;;;;;;;11.84;44.72;93808.78;5051181;28;20033;-73
2024/02/25 00:51:28;;;;;;;4.25;2.55;;;;;;;12.38;44.14;93819.63;5050902;28;20417;-73
2024/02/25 00:53:54;;;;;;;3.15;2.80;;;;;;;12.43;43.47;93814.91;5051314;28;20036;-72
2024/02/25 00:56:19;;;;;;;3.40;2.53;;;;;;;12.49;43.59;93820.84;5051324;28;20417;-73
2024/02/25 00:58:44;;;;;;;6.20;2.60;;;;;;;12.90;43.09;93833.44;5033120;28;20037;-73
2024/02/25 01:01:16;;;;;;;3.80;2.20;;;;;;;12.76;43.27;93807.00;5050898;28;20040;-72
2024/02/25 01:03:44;;;;;;;5.00;2.95;;;;;;;13.11;42.58;93812.81;5050698;28;20041;-73
2024/02/25 01:06:10;;;;;;;3.13;2.30;;;;;;;13.34;41.79;93821.25;5044366;28;20042;-73
2024/02/25 01:08:38;;;;;;;2.55;2.10;;;;;;;13.29;41.62;93800.09;5051690;28;20100;-73
2024/02/25 01:11:08;;;;;;;4.95;3.17;;;;;;;13.20;41.82;93815.44;5050895;28;20104;-73
2024/02/25 01:13:34;;;;;;;4.30;3.00;;;;;;;12.75;42.10;93800.13;5050812;28;20029;-73
2024/02/25 01:16:02;;;;;;;3.50;2.10;;;;;;;13.15;41.87;93804.97;5050645;28;20120;-73
2024/02/25 01:18:33;;;;;;;4.80;2.90;;;;;;;13.47;41.56;93798.81;5050835;28;20490;-73
2024/02/25 01:20:59;;;;;;;4.05;2.63;;;;;;;13.56;40.98;93802.16;5050559;28;20028;-72
2024/02/25 01:23:25;;;;;;;2.65;2.13;;;;;;;13.64;40.74;93817.34;5051241;28;20025;-73
2024/02/25 01:25:51;;;;;;;2.80;2.03;;;;;;;13.56;41.20;93810.16;5050679;28;20033;-73
2024/02/25 01:28:16;;;;;;;3.53;1.98;;;;;;;13.25;41.42;93817.91;5050647;28;20033;-73
2024/02/25 01:30:42;;;;;;;3.97;2.45;;;;;;;12.82;42.19;93829.72;5050962;28;20030;-73
2024/02/25 01:33:08;;;;;;;2.25;1.70;;;;;;;13.20;41.92;93820.78;5050818;28;20028;-73
2024/02/25 01:35:33;;;;;;;2.88;2.17;;;;;;;13.48;41.46;93821.75;5051008;28;20060;-73
2024/02/25 01:37:59;;;;;;;2.50;2.30;;;;;;;13.16;41.48;93814.50;5050639;28;20161;-73
2024/02/25 01:40:24;;;;;;;7.60;2.60;;;;;;;13.13;41.20;93805.28;5050635;28;20045;-73
2024/02/25 01:43:09;;;;;;;6.25;2.50;;;;;;;12.88;42.11;93825.75;5050422;28;20413;-73
2024/02/25 01:45:35;;;;;;;2.65;1.90;;;;;;;13.20;41.97;93815.44;5050560;28;20124;-73
2024/02/25 01:48:05;;;;;;;2.92;2.10;;;;;;;12.93;41.74;93799.97;5050717;28;20100;-73
2024/02/25 01:50:32;;;;;;;2.83;2.33;;;;;;;13.00;42.08;93781.53;5050877;28;20583;-73
2024/02/25 01:52:59;;;;;;;4.80;2.33;;;;;;;13.23;42.19;93812.09;5050431;28;20036;-73
2024/02/25 01:55:25;;;;;;;2.83;2.38;;;;;;;13.21;41.73;93803.63;5050639;28;20490;-72
2024/02/25 01:57:53;;;;;;;2.50;1.70;;;;;;;13.31;42.40;93822.69;5049886;28;20047;-73
2024/02/25 02:00:19;;;;;;;2.80;1.95;;;;;;;13.10;42.05;93821.19;5050455;28;20497;-72
2024/02/25 02:02:44;;;;;;;2.83;2.00;;;;;;;12.66;42.25;93811.97;5051042;28;20025;-73
2024/02/25 02:05:10;;;;;;;2.92;2.47;;;;;;;11.90;44.10;93809.41;5050235;28;20033;-73
2024/02/25 02:07:38;;;;;;;4.25;2.40;;;;;;;11.35;46.43;93807.53;5050523;28;20128;-73
2024/02/25 02:10:11;;;;;;;5.40;2.95;;;;;;;11.09;46.67;93804.16;5050372;28;20067;-73
2024/02/25 02:12:42;;;;;;;3.17;2.88;;;;;;;11.07;46.66;93780.50;5050560;28;20029;-73
2024/02/25 02:15:09;;;;;;;2.80;2.55;;;;;;;11.17;46.66;93774.84;5050391;28;20029;-72
2024/02/25 02:17:35;;;;;;;3.42;2.30;;;;;;;10.67;47.53;93800.41;5050539;28;20083;-73
2024/02/25 02:20:00;;;;;;;3.50;2.85;;;;;;;10.38;48.44;93800.25;5053085;28;20037;-73
2024/02/25 02:22:26;;;;;;;2.75;2.45;;;;;;;10.13;48.98;93777.84;5053952;28;20029;-73
2024/02/25 02:24:52;;;;;;;5.32;2.67;;;;;;;10.12;48.52;93793.00;5053566;28;20056;-73
2024/02/25 02:27:18;;;;;;;4.30;2.30;;;;;;;10.94;47.49;93802.78;5035872;28;20029;-73
2024/02/25 02:29:43;;;;;;;3.72;2.33;;;;;;;11.21;46.68;93790.97;5054340;28;20032;-72
2024/02/25 02:32:08;;;;;;;3.63;2.80;;;;;;;10.56;47.18;93746.00;5053614;28;20044;-73
2024/02/25 02:34:35;;;;;;;4.05;3.35;;;;;;;10.30;48.49;93788.50;5053805;28;20116;-72
2024/02/25 02:37:01;;;;;;;5.65;2.65;;;;;;;10.41;48.79;93797.78;5053669;28;20037;-73
2024/02/25 02:39:26;;;;;;;3.47;2.60;;;;;;;10.98;47.68;93787.72;5053462;28;20517;-73
2024/02/25 02:41:52;;;;;;;3.00;2.40;;;;;;;11.03;46.76;93784.91;5053915;28;20040;-72
2024/02/25 02:44:18;;;;;;;2.65;2.15;;;;;;;10.43;47.77;93765.53;5053986;28;20025;-73
2024/02/25 02:46:43;;;;;;;3.25;2.45;;;;;;;10.89;47.11;93776.31;5053300;28;20032;-73
2024/02/25 02:49:09;;;;;;;2.75;2.22;;;;;;;11.35;46.39;93769.47;5053503;28;20029;-73
2024/02/25 02:51:34;;;;;;;2.90;2.60;;;;;;;11.11;46.13;93749.50;5053364;28;20410;-73
2024/02/25 02:54:02;;;;;;;4.30;2.13;;;;;;;11.14;46.69;93759.53;5053415;28;20029;-73
2024/02/25 02:56:29;;;;;;;2.85;2.17;;;;;;;10.83;47.20;93760.84;5053991;28;20029;-73
2024/02/25 02:58:55;;;;;;;4.95;2.10;;;;;;;11.17;47.03;93769.53;5053184;28;20029;-73
2024/02/25 03:01:20;;;;;;;3.08;2.25;;;;;;;11.24;46.60;93779.69;5053043;28;20087;-73
2024/02/25 03:03:46;;;;;;;3.80;2.15;;;;;;;11.52;45.76;93764.13;5052987;28;20041;-73
2024/02/25 03:06:11;;;;;;;6.22;2.47;;;;;;;10.91;46.62;93787.41;5052958;28;20112;-73
2024/02/25 03:08:39;;;;;;;2.70;1.80;;;;;;;10.57;47.49;93787.44;5053744;28;20512;-73
2024/02/25 03:11:04;;;;;;;2.72;2.15;;;;;;;10.28;47.64;93770.19;5052857;28;20036;-73
2024/02/25 03:13:30;;;;;;;3.45;2.42;;;;;;;10.64;47.47;93777.91;5052974;28;20037;-73
2024/02/25 03:15:55;;;;;;;2.47;1.90;;;;;;;10.86;47.07;93795.56;5035037;28;20529;-73
2024/02/25 03:18:20;;;;;;;6.95;2.05;;;;;;;10.66;47.27;93772.28;5052688;28;20040;-73
2024/02/25 03:20:46;;;;;;;2.55;1.85;;;;;;;10.81;46.89;93777.09;5053723;28;20491;-73
2024/02/25 03:23:13;;;;;;;3.22;1.75;;;;;;;11.12;46.43;93783.00;5052480;28;20037;-73
2024/02/25 03:25:38;;;;;;;2.30;1.65;;;;;;;11.47;45.72;93773.03;5052550;28;20037;-73
2024/02/25 03:28:04;;;;;;;4.65;2.50;;;;;;;11.98;44.39;93787.25;5052722;28;20040;-72
2024/02/25 03:30:29;;;;;;;2.65;2.20;;;;;;;11.74;44.55;93755.88;5051717;28;20116;-73
2024/02/25 03:32:59;;;;;;;4.78;1.90;;;;;;;11.84;45.14;93794.69;5052522;28;20049;-73
2024/02/25 03:35:25;;;;;;;8.52;3.17;;;;;;;11.57;45.85;93793.25;5053177;28;20024;-73
2024/02/25 03:37:54;;;;;;;3.00;2.30;;;;;;;11.55;45.85;93790.91;5052571;28;20608;-72
2024/02/25 03:40:21;;;;;;;5.00;2.53;;;;;;;11.91;45.56;93803.75;5052144;28;20048;-72
2024/02/25 03:42:48;;;;;;;4.25;2.40;;;;;;;12.41;44.51;93811.00;5052256;28;20501;-73
2024/02/25 03:45:14;;;;;;;4.93;2.20;;;;;;;12.72;44.08;93814.09;5052375;28;20078;-73
2024/02/25 03:47:39;;;;;;;4.80;2.20;;;;;;;12.70;44.16;93808.31;5053046;28;20104;-73
2024/02/25 03:50:05;;;;;;;9.75;3.80;;;;;;;12.89;43.96;93815.84;5052208;28;20033;-73
2024/02/25 03:52:31;;;;;;;6.65;4.18;;;;;;;12.88;43.40;93812.41;5052013;28;20501;-73
2024/02/25 03:54:56;;;;;;;5.20;3.33;;;;;;;12.95;43.12;93825.22;5051895;28;20116;-73
2024/02/25 03:57:21;;;;;;;5.07;3.22;;;;;;;12.92;43.34;93825.88;5052276;28;20028;-73
2024/02/25 03:59:47;;;;;;;4.45;2.70;;;;;;;12.97;43.30;93806.19;5052577;28;20021;-74
2024/02/25 04:02:12;;;;;;;5.20;2.55;;;;;;;13.29;43.02;93824.91;5051983;28;20493;-73
2024/02/25 04:04:39;;;;;;;3.67;3.20;;;;;;;13.35;42.87;93827.38;5052050;28;20041;-73
2024/02/25 04:07:05;;;;;;;5.72;3.13;;;;;;;13.46;42.63;93833.84;5051952;28;20040;-73
2024/02/25 04:09:31;;;;;;;4.82;3.00;;;;;;;13.31;42.85;93808.53;5051578;28;20029;-73
2024/02/25 04:11:56;;;;;;;6.18;2.95;;;;;;;13.37;43.12;93835.84;5051904;28;20493;-72
2024/02/25 04:14:21;;;;;;;6.25;3.17;;;;;;;13.24;43.39;93814.44;5052141;28;20017;-73
2024/02/25 04:16:47;;;;;;;4.35;2.92;;;;;;;13.35;43.69;93832.72;5051747;28;20572;-73
2024/02/25 04:19:12;;;;;;;7.07;3.55;;;;;;;13.42;43.77;93832.97;5051835;28;20057;-73
2024/02/25 04:21:38;;;;;;;4.90;3.38;;;;;;;13.34;43.78;93799.91;5051856;28;20036;-73
2024/02/25 04:24:04;;;;;;;6.85;3.67;;;;;;;13.55;44.05;93832.66;5051201;28;20028;-73
2024/02/25 04:26:29;;;;;;;7.00;4.00;;;;;;;13.47;45.27;93825.53;5052063;28;20131;-73
2024/02/25 04:28:54;;;;;;;7.72;3.90;;;;;;;13.49;46.35;93842.00;5051371;28;20043;-73
2024/02/25 04:31:20;;;;;;;6.80;3.75;;;;;;;13.46;46.71;93825.84;5051293;28;20040;-73
2024/02/25 04:33:45;;;;;;;8.25;3.45;;;;;;;13.38;47.23;93840.06;5051730;28;20398;-73
2024/02/25 04:36:18;;;;;;;6.25;3.38;;;;;;;13.33;47.68;93841.06;5051382;28;20518;-73
2024/02/25 04:38:43;;;;;;;7.40;3.95;;;;;;;13.24;49.28;93840.38;5051801;28;20490;-73
2024/02/25 04:41:09;;;;;;;5.28;4.00;;;;;;;13.13;49.28;93847.22;5051160;28;20048;-73
2024/02/25 04:43:36;;;;;;;4.75;3.47;;;;;;;13.09;49.28;93848.97;5051129;28;20055;-73
2024/02/25 04:46:01;;;;;;;7.93;3.90;;;;;;;12.84;49.70;93814.16;5051293;28;20033;-73
2024/02/25 04:48:27;;;;;;;4.55;3.28;;;;;;;13.01;49.68;93847.94;5051255;28;20032;-73
2024/02/25 04:50:55;;;;;;;4.93;3.47;;;;;;;12.85;49.76;93855.78;5051186;28;20096;-72
2024/02/25 04:53:21;;;;;;;5.72;3.35;;;;;;;12.48;50.72;93848.59;5051798;28;20017;-73
2024/02/25 04:55:47;;;;;;;4.38;3.35;;;;;;;12.33;50.43;93830.50;5051232;28;20560;-73
2024/02/25 04:58:13;;;;;;;5.53;3.13;;;;;;;12.39;50.50;93829.22;5051021;28;20148;-73
2024/02/25 05:00:38;;;;;;;3.83;3.08;;;;;;;12.49;51.24;93844.84;5051029;28;20622;-73
2024/02/25 05:03:05;;;;;;;3.55;3.00;;;;;;;12.37;51.88;93839.44;5051079;28;20025;-72
2024/02/25 05:05:30;;;;;;;5.68;3.47;;;;;;;12.16;52.79;93835.94;5051934;28;20048;-73
2024/02/25 05:07:56;;;;;;;18.70;10.85;;;;;;;12.16;52.55;93836.72;5050982;28;20502;-73
2024/02/25 05:10:22;;;;;;;8.40;4.30;;;;;;;12.08;52.68;93840.19;5050640;28;20116;-72
2024/02/25 05:12:48;;;;;;;7.45;4.75;;;;;;;12.16;52.61;93846.59;5050893;28;20041;-73
2024/02/25 05:15:14;;;;;;;11.57;4.70;;;;;;;12.19;52.23;93849.41;5050874;28;20482;-73
2024/02/25 05:17:39;;;;;;;6.97;4.25;;;;;;;12.14;51.71;93819.47;5051226;28;20033;-73
2024/02/25 05:20:06;;;;;;;7.57;5.55;;;;;;;12.33;51.21;93831.28;5051163;28;20033;-73
2024/02/25 05:22:32;;;;;;;8.40;4.82;;;;;;;12.34;50.96;93832.84;5050847;28;20037;-73
2024/02/25 05:24:57;;;;;;;10.57;6.30;;;;;;;12.37;50.61;93858.88;5050710;28;20040;-73
2024/02/25 05:27:28;;;;;;;14.15;8.95;;;;;;;12.41;51.14;93854.47;5050840;28;20065;-73
2024/02/25 05:29:55;;;;;;;16.60;11.00;;;;;;;12.38;51.38;93848.97;5050642;28;20501;-73
2024/02/25 05:32:20;;;;;;;27.73;17.00;;;;;;;12.39;51.40;93861.22;5033280;28;20452;-73
2024/02/25 05:34:45;;;;;;;15.32;10.15;;;;;;;12.32;51.52;93851.03;5032959;28;20045;-72
2024/02/25 05:37:11;;;;;;;16.27;9.77;;;;;;;12.52;50.88;93870.09;5033168;28;20106;-72
2024/02/25 05:39:37;;;;;;;11.35;8.13;;;;;;;12.49;51.49;93874.19;5050509;28;20029;-72
2024/02/25 05:42:04;;;;;;;7.13;5.65;;;;;;;12.55;51.05;93874.78;5050306;28;20033;-73
2024/02/25 05:44:29;;;;;;;6.40;4.32;;;;;;;12.34;50.84;93837.41;5051132;28;20490;-73
2024/02/25 05:46:55;;;;;;;6.82;4.18;;;;;;;12.57;50.74;93885.91;5050382;28;20048;-73
2024/02/25 05:49:20;;;;;;;9.05;4.05;;;;;;;12.51;51.18;93871.19;5050499;28;20445;-73
2024/02/25 05:51:45;;;;;;;5.72;4.22;;;;;;;12.46;51.99;93888.97;5050935;28;20181;-73
2024/02/25 05:54:11;;;;;;;8.70;5.03;;;;;;;12.44;52.45;93893.81;5051981;28;20429;-73
2024/02/25 05:56:36;;;;;;;6.95;5.00;;;;;;;12.40;52.40;93897.47;5054938;28;20107;-73
2024/02/25 05:59:01;;;;;;;4.22;3.33;;;;;;;12.37;52.74;93900.78;5054533;28;20037;-73
2024/02/25 06:01:33;;;;;;;5.03;4.13;;;;;;;12.35;53.22;93900.31;5054457;28;20099;-73
2024/02/25 06:03:59;;;;;;;3.78;3.17;;;;;;;12.11;53.37;93857.44;5054327;28;20037;-73
2024/02/25 06:06:24;;;;;;;4.07;3.45;;;;;;;12.30;52.51;93879.94;5054506;28;20516;-73
2024/02/25 06:08:50;;;;;;;4.35;3.65;;;;;;;12.28;53.50;93889.34;5054686;28;20095;-73
2024/02/25 06:11:15;;;;;;;5.32;3.38;;;;;;;11.98;54.21;93873.31;5054391;28;20048;-73
2024/02/25 06:13:40;;;;;;;5.53;3.58;;;;;;;11.76;54.49;93862.91;5054142;28;20033;-72
2024/02/25 06:16:06;;;;;;;8.25;5.18;;;;;;;11.98;55.10;93891.19;5053801;28;20028;-73
2024/02/25 06:18:31;;;;;;;7.47;4.13;;;;;;;11.95;55.49;93889.97;5054129;28;20505;-73
2024/02/25 06:20:57;;;;;;;5.15;4.38;;;;;;;11.93;55.85;93886.81;5054013;28;20021;-73
2024/02/25 06:23:22;;;;;;;8.27;4.95;;;;;;;11.93;56.27;93894.81;5054172;28;20033;-73
2024/02/25 06:25:48;;;;;;;5.20;4.15;;;;;;;11.88;56.77;93894.25;5053958;28;20410;-73
2024/02/25 06:28:13;;;;;;;5.10;3.67;;;;;;;11.87;56.26;93893.44;5053480;28;20037;-71
2024/02/25 06:30:39;;;;;;;7.55;4.05;;;;;;;11.87;55.72;93898.78;5053561;28;20057;-73
2024/02/25 06:33:04;;;;;;;7.45;4.78;;;;;;;11.80;56.34;93903.81;5053536;28;20025;-73
2024/02/25 06:35:29;;;;;;;11.10;5.38;;;;;;;11.94;56.30;93890.28;5054266;28;20021;-72
2024/02/25 06:37:55;;;;;;;7.15;4.05;;;;;;;11.85;56.18;93882.31;5053730;28;20569;-73
2024/02/25 06:40:20;;;;;;;8.15;3.92;;;;;;;11.97;56.34;93895.78;5053190;28;20413;-72
2024/02/25 06:42:46;;;;;;;5.63;3.95;;;;;;;12.07;55.44;93904.50;5053893;28;20116;-73
2024/02/25 06:45:12;;;;;;;3.58;3.28;;;;;;;12.09;55.44;93896.97;5053084;28;20037;-73
2024/02/25 06:47:37;;;;;;;8.63;3.55;;;;;;;12.15;55.95;93903.69;5053852;28;20056;-73
2024/02/25 06:50:03;;;;;;;5.60;4.50;;;;;;;12.21;55.87;93910.41;5053446;28;20037;-73
2024/02/25 06:52:28;;;;;;;5.32;3.88;;;;;;;12.17;55.76;93886.28;5053419;28;20060;-73
2024/02/25 06:54:54;;;;;;;6.00;3.50;;;;;;;12.32;55.70;93899.06;5053246;28;20033;-73
2024/02/25 06:57:19;;;;;;;7.20;4.00;;;;;;;12.20;56.97;93908.84;5053449;28;20029;-73
2024/02/25 06:59:44;;;;;;;9.13;4.95;;;;;;;11.97;58.07;93913.66;5054166;28;20079;-72
2024/02/25 07:02:10;;;;;;;10.85;6.57;;;;;;;11.77;59.27;93893.00;5053495;28;20505;-73
2024/02/25 07:04:35;;;;;;;13.95;8.23;;;;;;;11.64;60.10;93892.09;5052741;28;20502;-73
2024/02/25 07:07:01;;;;;;;10.73;7.45;;;;;;;11.67;59.85;93912.78;5053197;28;20033;-72
2024/02/25 07:09:27;;;;;;;10.30;7.22;;;;;;;11.69;59.36;93893.78;5053250;28;20490;-73
2024/02/25 07:11:52;;;;;;;12.05;7.35;;;;;;;11.85;59.26;93911.63;5053007;28;20036;-72
2024/02/25 07:14:18;;;;;;;9.98;7.32;;;;;;;11.83;59.60;93913.06;5035765;28;20036;-73
2024/02/25 07:16:44;;;;;;;15.30;8.93;;;;;;;11.96;59.35;93912.84;5053034;28;20108;-73
2024/02/25 07:19:09;;;;;;;11.00;6.63;;;;;;;11.86;58.82;93901.75;5052840;28;20033;-73
2024/02/25 07:21:35;;;;;;;12.88;6.65;;;;;;;11.89;59.49;93909.88;5052958;28;20072;-73
2024/02/25 07:24:00;;;;;;;10.60;7.00;;;;;;;11.99;59.49;93903.44;5053116;28;20385;-73
2024/02/25 07:26:25;;;;;;;8.80;6.90;;;;;;;11.99;59.04;93906.88;5053078;28;20106;-73
2024/02/25 07:28:52;;;;;;;10.95;6.82;;;;;;;11.91;58.94;93891.72;5052709;28;20090;-72
2024/02/25 07:31:19;;;;;;;15.13;7.10;;;;;;;12.24;58.86;93909.75;5052697;28;20037;-73
2024/02/25 07:33:46;;;;;;;11.75;7.15;;;;;;;12.22;58.85;93903.97;5052767;28;20087;-73
2024/02/25 07:36:13;;;;;;;13.20;6.20;;;;;;;12.06;59.19;93882.41;5052470;28;20033;-73
2024/02/25 07:38:39;;;;;;;10.07;5.60;;;;;;;12.10;59.38;93906.53;5053266;28;20028;-73
2024/02/25 07:41:05;;;;;;;8.05;6.28;;;;;;;12.03;58.84;93897.13;5052238;28;20725;-73
2024/02/25 07:43:32;;;;;;;11.63;8.02;;;;;;;11.22;62.42;93890.25;5052370;28;20029;-73
2024/02/25 07:45:58;;;;;;;10.85;6.88;;;;;;;11.45;62.63;93891.63;5052672;28;20063;-73
2024/02/25 07:48:24;;;;;;;11.90;7.65;;;;;;;11.58;61.98;93891.50;5052120;28;20553;-73
2024/02/25 07:50:49;;;;;;;9.02;6.72;;;;;;;11.90;60.89;93886.69;5053044;28;20032;-73
2024/02/25 07:53:15;;;;;;;10.93;7.78;;;;;;;12.10;61.32;93890.53;5052623;28;20088;-73
2024/02/25 07:55:40;;;;;;;11.82;7.70;;;;;;;12.13;60.51;93879.22;5052167;28;20525;-73
2024/02/25 07:58:06;;;;;;;9.35;6.75;;;;;;;11.98;60.41;93888.53;5052067;28;20059;-73
2024/02/25 08:00:33;;;;;;;7.40;6.28;;;;;;;11.73;61.42;93879.53;5052067;28;20494;-73
2024/02/25 08:02:59;;;;;;;10.57;7.45;;;;;;;11.28;63.76;93870.38;5051990;28;20483;-72
2024/02/25 08:05:25;;;;;;;10.07;7.30;;;;;;;11.25;63.38;93839.06;5052363;28;20108;-73
2024/02/25 08:07:52;;;;;;;12.82;6.60;;;;;;;11.40;63.30;93881.13;5051879;28;20116;-73
2024/02/25 08:10:21;;;;;;;13.27;8.45;;;;;;;10.96;65.62;93861.75;5052229;28;20044;-73
2024/02/25 08:12:47;;;;;;;13.80;7.07;;;;;;;11.03;66.45;93875.41;5051795;28;20562;-73
2024/02/25 08:15:13;;;;;;;14.27;7.32;;;;;;;11.11;66.63;93879.13;5051861;28;20025;-73
2024/02/25 08:17:39;;;;;;;17.70;7.45;;;;;;;11.33;65.92;93872.88;5051856;28;20023;-72
2024/02/25 08:20:05;;;;;;;14.60;7.25;;;;;;;11.53;65.12;93862.38;5051642;28;20490;-73
2024/02/25 08:22:32;;;;;;;10.07;7.13;;;;;;;11.79;63.67;93851.59;5051462;28;20086;-73
2024/02/25 08:24:59;;;;;;;9.07;6.13;;;;;;;12.02;63.21;93850.28;5051611;28;20037;-73
2024/02/25 08:27:28;;;;;;;9.27;6.18;;;;;;;11.94;62.39;93843.09;5051499;28;20548;-73
2024/02/25 08:29:54;;;;;;;12.48;6.65;;;;;;;11.81;63.21;93867.28;5051482;28;20409;-73
2024/02/25 08:32:20;;;;;;;10.75;7.07;;;;;;;11.50;64.64;93862.94;5052044;28;20025;-73
2024/02/25 08:34:45;;;;;;;9.20;6.00;;;;;;;10.98;65.93;93848.94;5051566;28;20107;-73
2024/02/25 08:37:11;;;;;;;9.10;6.90;;;;;;;10.83;67.30;93852.06;5051488;28;20040;-73
2024/02/25 08:39:36;;;;;;;7.95;6.28;;;;;;;11.04;67.47;93839.72;5051082;28;20415;-73
2024/02/25 08:42:02;;;;;;;8.85;6.18;;;;;;;11.35;65.03;93822.72;5051715;28;20032;-71
2024/02/25 08:44:27;;;;;;;8.27;6.05;;;;;;;11.77;63.14;93840.50;5051534;28;20029;-72
2024/02/25 08:46:53;;;;;;;12.70;7.53;;;;;;;12.18;62.13;93865.72;5051224;28;20040;-73
2024/02/25 08:49:18;;;;;;;11.88;6.35;;;;;;;11.84;61.50;93851.44;5051150;28;20520;-73
2024/02/25 08:51:43;;;;;;;11.15;6.90;;;;;;;11.66;62.41;93849.16;5051576;28;20098;-72
2024/02/25 08:54:09;;;;;;;13.52;8.10;;;;;;;11.75;62.41;93848.03;5050982;28;20104;-73
2024/02/25 08:56:34;;;;;;;18.73;9.63;;;;;;;11.85;62.35;93842.34;5051874;28;20024;-73
2024/02/25 08:58:59;;;;;;;13.80;10.38;;;;;;;12.05;61.31;93854.19;5050750;28;20147;-73
2024/02/25 09:01:25;;;;;;;11.90;8.18;;;;;;;11.80;62.46;93853.19;5051137;28;20401;-73
2024/02/25 09:03:50;;;;;;;13.90;8.40;;;;;;;11.34;63.39;93821.19;5051068;28;20459;-73
2024/02/25 09:06:15;;;;;;;14.82;9.80;;;;;;;11.26;63.76;93843.25;5051150;28;20549;-73
2024/02/25 09:08:41;;;;;;;15.73;7.50;;;;;;;11.30;63.80;93836.19;5051364;28;20032;-73
2024/02/25 09:11:06;;;;;;;14.13;7.43;;;;;;;11.18;64.20;93842.97;5050905;28;20112;-73
2024/02/25 09:13:31;;;;;;;13.50;8.60;;;;;;;10.91;64.74;93837.97;5050854;28;20131;-73
2024/02/25 09:15:57;;;;;;;14.35;9.55;;;;;;;11.13;64.12;93826.38;5050478;28;20048;-72
2024/02/25 09:18:22;;;;;;;11.63;7.25;;;;;;;11.03;63.08;93819.50;5050867;28;20112;-73
2024/02/25 09:20:48;;;;;;;19.17;12.52;;;;;;;10.72;63.70;93821.53;5051505;28;20025;-73
2024/02/25 09:23:13;;;;;;;10.63;7.88;;;;;;;10.75;64.15;93844.88;5050569;28;20497;-73
2024/02/25 09:25:38;;;;;;;9.10;6.65;;;;;;;10.87;63.50;93850.34;5050519;28;20038;-73
2024/02/25 09:28:04;;;;;;;7.28;5.95;;;;;;;10.55;64.01;93832.19;5050722;28;20033;-72
2024/02/25 09:30:33;;;;;;;7.03;6.10;;;;;;;10.35;64.98;93838.84;5054816;28;20079;-73
2024/02/25 09:32:59;;;;;;;11.13;6.20;;;;;;;10.46;64.78;93836.72;5055234;28;20103;-72
2024/02/25 09:35:25;;;;;;;14.95;8.65;;;;;;;10.62;63.93;93833.28;5055644;28;20415;-72
2024/02/25 09:37:50;;;;;;;22.10;19.13;;;;;;;10.80;64.05;93839.41;5054650;28;20048;-73
2024/02/25 09:40:16;;;;;;;15.57;10.90;;;;;;;10.80;63.80;93833.31;5054451;28;20145;-72
2024/02/25 09:42:45;;;;;;;18.80;13.55;;;;;;;10.87;64.05;93839.69;5054975;28;20425;-73
2024/02/25 09:45:20;;;;;;;14.27;11.20;;;;;;;10.69;64.18;93833.59;5054509;28;20103;-73
2024/02/25 09:47:46;;;;;;;20.17;11.95;;;;;;;10.87;63.76;93830.94;5055109;28;20539;-73
2024/02/25 09:50:14;;;;;;;23.73;17.27;;;;;;;10.99;62.57;93823.91;5054557;28;20029;-73
2024/02/25 09:52:40;;;;;;;25.50;17.48;;;;;;;10.95;62.05;93816.84;5054618;28;20528;-72
2024/02/25 09:55:09;;;;;;;27.73;18.50;;;;;;;11.22;62.17;93829.03;5054595;28;20120;-73
2024/02/25 09:57:34;;;;;;;14.70;12.60;;;;;;;11.05;62.02;93814.63;5054223;28;20036;-72
2024/02/25 09:59:59;;;;;;;9.38;7.90;;;;;;;10.97;61.18;93815.44;5054429;28;20024;-72
2024/02/25 10:02:26;;;;;;;9.75;7.68;;;;;;;10.95;61.23;93814.97;5055047;28;20013;-73
2024/02/25 10:04:52;;;;;;;11.82;6.22;;;;;;;11.38;58.68;93824.78;5054155;28;20095;-73
2024/02/25 10:07:18;;;;;;;7.60;4.95;;;;;;;11.80;57.61;93817.75;5054462;28;20128;-73
2024/02/25 10:09:48;;;;;;;13.38;6.38;;;;;;;12.10;57.51;93807.91;5054203;28;20613;-73
2024/02/25 10:12:13;;;;;;;10.55;6.15;;;;;;;12.14;56.57;93811.47;5054304;28;20032;-72
2024/02/25 10:14:40;;;;;;;7.60;5.15;;;;;;;11.29;57.20;93786.75;5054760;28;20025;-73
2024/02/25 10:17:07;;;;;;;6.53;4.85;;;;;;;11.76;57.01;93800.84;5053776;28;20402;-73
2024/02/25 10:19:33;;;;;;;11.10;5.50;;;;;;;11.91;57.73;93798.44;5052796;28;20040;-73
2024/02/25 10:22:11;;;;;;;9.57;5.82;;;;;;;12.00;57.78;93796.50;5053251;28;20502;-74
2024/02/25 10:24:40;;;;;;;7.65;5.57;;;;;;;12.16;56.10;93783.41;5053759;28;20049;-73
2024/02/25 10:27:11;;;;;;;7.97;5.68;;;;;;;12.46;55.56;93784.16;5053727;28;20028;-72
2024/02/25 10:29:49;;;;;;;7.72;5.50;;;;;;;12.66;56.26;93786.06;5054316;28;20060;-72
2024/02/25 10:32:22;;;;;;;8.27;5.40;;;;;;;11.76;57.48;93780.31;5052570;28;20079;-73
2024/02/25 10:34:48;;;;;;;8.55;5.13;;;;;;;11.44;58.31;93767.59;5052716;28;20029;-71
2024/02/25 10:37:14;;;;;;;9.32;5.00;;;;;;;11.47;58.97;93772.25;5053613;28;20041;-71
2024/02/25 10:39:41;;;;;;;10.43;6.28;;;;;;;11.81;58.41;93745.50;5052624;28;20049;-72
2024/02/25 10:42:07;;;;;;;10.00;6.05;;;;;;;11.84;58.16;93773.38;5053734;28;20071;-72
2024/02/25 10:44:32;;;;;;;7.68;6.05;;;;;;;11.65;59.08;93767.66;5054079;28;20028;-72
2024/02/25 10:47:03;;;;;;;9.02;5.20;;;;;;;12.14;58.62;93769.59;5053302;28;20040;-72
2024/02/25 10:49:29;;;;;;;7.40;5.75;;;;;;;12.16;57.20;93746.06;5053611;28;20045;-71
2024/02/25 10:51:56;;;;;;;9.35;5.88;;;;;;;12.36;57.18;93768.53;5053223;28;20517;-72
2024/02/25 10:54:22;;;;;;;9.02;6.85;;;;;;;11.99;57.49;93759.50;5053392;28;20029;-72
2024/02/25 10:56:48;;;;;;;10.02;6.68;;;;;;;11.53;59.90;93747.06;5053913;28;20036;-72
2024/02/25 10:59:16;;;;;;;8.48;5.95;;;;;;;11.69;59.72;93748.06;5053202;28;20033;-72
2024/02/25 11:01:43;;;;;;;9.60;5.68;;;;;;;11.74;60.02;93750.53;5053069;28;20029;-72
2024/02/25 11:04:08;;;;;;;7.32;5.63;;;;;;;12.21;59.02;93745.09;5050974;28;20036;-73
2024/02/25 11:06:41;;;;;;;6.60;5.10;;;;;;;12.56;57.34;93735.75;5051789;28;20032;-73
2024/02/25 11:09:10;;;;;;;8.40;6.20;;;;;;;12.35;58.11;93737.63;5051999;28;20025;-73
2024/02/25 11:11:36;;;;;;;9.40;6.40;;;;;;;12.27;59.17;93738.47;5053218;28;20099;-73
2024/02/25 11:14:02;;;;;;;10.05;6.10;;;;;;;12.20;59.17;93740.88;5052357;28;20021;-73
2024/02/25 11:16:35;;;;;;;9.88;6.50;;;;;;;12.22;59.50;93744.00;5052107;28;20099;-72
2024/02/25 11:19:01;;;;;;;8.90;6.75;;;;;;;12.03;59.21;93710.56;5052480;28;20040;-73
2024/02/25 11:21:30;;;;;;;10.82;7.18;;;;;;;11.47;62.34;93729.66;5051213;28;20033;-73
2024/02/25 11:23:56;;;;;;;11.20;6.28;;;;;;;11.46;62.52;93717.44;5050638;28;20049;-72
2024/02/25 11:26:33;;;;;;;12.10;6.97;;;;;;;11.67;61.93;93728.97;5051299;28;20410;-73